Time;durP1;ratioP1;P1;durP2;ratioP2;P2;SDS_P1;SDS_P2;PMS_P1;PMS_P2;Temp;Humidity;BMP_temperature;BMP_pressure;BME280_temperature;BME280_humidity;BME280_pressure;Samples;Min_cycle;Max_cycle;Signal;HPM_P1;HPM_P2
2022/11/04 00:01:46;;;;;;;16.20;8.50;;;;;;;8.62;75.21;100183.33;1670803;85;21605;-82
2022/11/04 00:04:31;;;;;;;19.30;9.20;;;;;;;8.60;75.22;100181.22;1670405;85;21064;-82
2022/11/04 00:12:23;;;;;;;17.15;8.63;;;;;;;8.59;75.23;100175.64;1652620;85;21102;-82
2022/11/04 00:13:06;;;;;;;;;;;;;;;8.58;75.26;100182.97;1666209;85;21065;-82
2022/11/04 00:18:55;;;;;;;18.02;8.90;;;;;;;8.53;75.24;100177.46;1648223;85;21085;-82
2022/11/04 00:30:32;;;;;;;18.05;9.08;;;;;;;8.49;75.32;100169.36;1668009;84;21483;-82
2022/11/04 00:33:26;;;;;;;19.62;9.30;;;;;;;8.47;75.35;100169.82;1655139;84;21523;-82
2022/11/04 00:36:11;;;;;;;18.37;8.93;;;;;;;8.46;75.33;100176.70;1653392;84;21056;-82
2022/11/04 00:38:56;;;;;;;17.00;8.78;;;;;;;8.45;75.32;100169.84;1641483;84;462999;-82
2022/11/04 00:41:41;;;;;;;18.00;8.58;;;;;;;8.43;75.35;100170.30;1650543;86;21103;-82
2022/11/04 00:44:26;;;;;;;19.50;8.73;;;;;;;8.43;75.34;100169.02;1662102;84;21600;-82
2022/11/04 00:47:11;;;;;;;23.67;8.88;;;;;;;8.41;75.35;100164.31;1660276;86;21096;-82
2022/11/04 00:49:56;;;;;;;17.85;9.70;;;;;;;8.39;75.38;100157.48;1658910;86;21678;-82
2022/11/04 00:52:41;;;;;;;24.12;9.85;;;;;;;8.39;75.41;100149.75;1644797;84;21127;-82
2022/11/04 00:55:27;;;;;;;20.82;8.68;;;;;;;8.37;75.39;100138.19;1653343;86;21048;-82
2022/11/04 00:58:12;;;;;;;18.45;9.40;;;;;;;8.37;75.41;100143.34;1663550;86;21048;-82
2022/11/04 01:00:57;;;;;;;17.75;9.85;;;;;;;8.36;75.43;100131.33;1674006;84;21576;-82
2022/11/04 01:03:46;;;;;;;21.85;9.08;;;;;;;8.34;75.42;100131.78;1656447;86;21044;-82
2022/11/04 01:06:31;;;;;;;20.10;9.20;;;;;;;8.32;75.42;100127.06;1647060;86;21089;-82
2022/11/04 01:09:16;;;;;;;21.30;9.58;;;;;;;8.30;75.45;100123.69;1639044;85;21537;-82
2022/11/04 01:12:01;;;;;;;18.82;9.95;;;;;;;8.29;75.48;100124.56;1640172;84;21079;-82
2022/11/04 01:14:48;;;;;;;16.93;8.13;;;;;;;8.27;75.48;100122.02;1653727;85;21099;-82
2022/11/04 01:17:32;;;;;;;18.30;8.95;;;;;;;8.26;75.54;100116.44;1658581;85;21116;-82
2022/11/04 01:20:18;;;;;;;15.25;9.25;;;;;;;8.26;75.53;100111.73;1664074;85;21567;-82
2022/11/04 01:23:03;;;;;;;17.00;8.95;;;;;;;8.25;75.55;100099.72;1645684;84;21013;-82
2022/11/04 01:25:48;;;;;;;18.60;9.10;;;;;;;8.26;75.53;100101.42;1654632;83;21552;-82
2022/11/04 01:28:33;;;;;;;22.35;9.88;;;;;;;8.26;75.55;100096.27;1658432;85;21081;-82
2022/11/04 01:31:25;;;;;;;18.45;9.80;;;;;;;8.26;75.57;100088.11;1649247;85;21497;-82
2022/11/04 01:34:10;;;;;;;21.95;9.98;;;;;;;8.26;75.63;100093.27;1655884;85;21138;-82
2022/11/04 01:36:55;;;;;;;15.63;8.63;;;;;;;8.27;75.62;100086.39;1652733;84;21488;-82
2022/11/04 01:39:40;;;;;;;19.30;9.75;;;;;;;8.27;75.57;100082.52;1661487;84;21104;-82
2022/11/04 01:42:25;;;;;;;14.43;8.88;;;;;;;8.27;75.61;100081.23;1655452;85;21072;-82
2022/11/04 01:45:16;;;;;;;17.02;9.25;;;;;;;8.27;75.66;100078.22;1642780;86;21344;-82
2022/11/04 01:48:16;;;;;;;21.97;8.93;;;;;;;8.26;75.67;100075.23;1645779;84;21120;-82
2022/11/04 01:51:01;;;;;;;21.62;9.60;;;;;;;8.26;75.67;100073.09;1647275;85;21052;-82
2022/11/04 01:53:49;;;;;;;18.27;9.45;;;;;;;8.26;75.69;100070.08;1639223;86;21004;-82
2022/11/04 01:56:36;;;;;;;20.35;9.78;;;;;;;8.26;75.69;100071.37;1641219;86;21061;-82
2022/11/04 01:59:25;;;;;;;19.45;9.65;;;;;;;8.24;75.72;100069.25;1649826;86;21037;-82
2022/11/04 02:02:10;;;;;;;14.03;8.43;;;;;;;8.25;75.76;100059.36;1636468;86;21354;-82
2022/11/04 02:04:56;;;;;;;20.45;9.83;;;;;;;8.25;75.77;100061.09;1648278;84;21117;-82
2022/11/04 02:07:41;;;;;;;22.45;10.18;;;;;;;8.27;75.78;100052.91;1649261;85;21395;-82
2022/11/04 02:10:30;;;;;;;21.45;9.35;;;;;;;8.26;75.79;100048.62;1645004;86;20978;-82
2022/11/04 02:13:15;;;;;;;19.95;9.48;;;;;;;8.26;75.81;100043.03;1636856;86;20969;-82
2022/11/04 02:16:34;;;;;;;15.63;9.38;;;;;;;8.25;75.82;100044.34;1650554;86;20918;-82
2022/11/04 02:19:48;;;;;;;17.20;9.63;;;;;;;8.24;75.83;100035.77;1642065;84;21277;-82
2022/11/04 02:22:54;;;;;;;14.85;9.53;;;;;;;8.24;75.85;100027.19;1655818;85;21089;-82
2022/11/04 02:26:13;;;;;;;20.12;9.60;;;;;;;8.24;75.90;100020.75;1642176;85;21088;-82
2022/11/04 02:29:26;;;;;;;17.30;9.95;;;;;;;8.24;75.91;100014.31;1641337;86;21562;-82
2022/11/04 02:32:20;;;;;;;16.45;9.30;;;;;;;8.25;75.93;100016.87;1640470;85;21105;-82
2022/11/04 02:35:34;;;;;;;20.77;9.65;;;;;;;8.23;75.93;100007.03;1653807;84;21051;-82
2022/11/04 02:38:39;;;;;;;17.45;9.10;;;;;;;8.23;75.99;100003.59;1638690;86;21108;-82
2022/11/04 02:41:32;;;;;;;16.20;8.80;;;;;;;8.23;75.96;99999.30;1651601;84;21592;-82
2022/11/04 02:44:29;;;;;;;20.23;10.23;;;;;;;8.23;76.03;100004.89;1645289;86;21073;-82
2022/11/04 02:47:21;;;;;;;17.77;9.55;;;;;;;8.23;76.02;99997.16;1654200;85;21109;-82
2022/11/04 02:50:11;;;;;;;17.10;9.90;;;;;;;8.22;76.05;100001.46;1651916;86;21101;-82
2022/11/04 02:53:07;;;;;;;16.85;9.18;;;;;;;8.21;76.06;99998.91;1647257;86;21611;-82
2022/11/04 02:55:56;;;;;;;16.62;9.28;;;;;;;8.22;76.08;99992.45;1653505;86;20970;-82
2022/11/04 02:58:49;;;;;;;15.15;9.23;;;;;;;8.22;76.07;99995.02;1631079;86;21120;-82
2022/11/04 03:01:38;;;;;;;18.35;9.90;;;;;;;8.23;76.10;99998.45;1633186;86;21600;-82
2022/11/04 03:04:30;;;;;;;15.60;9.75;;;;;;;8.21;76.11;99995.05;1639416;86;21498;-82
2022/11/04 03:07:20;;;;;;;18.37;9.55;;;;;;;8.21;76.13;99998.48;1635907;84;21479;-82
2022/11/04 03:10:13;;;;;;;16.87;9.15;;;;;;;8.20;76.14;99987.76;1632763;86;21065;-82
2022/11/04 03:13:16;;;;;;;15.10;9.60;;;;;;;8.20;76.15;99983.05;1640694;86;21691;-82
2022/11/04 03:16:08;;;;;;;13.70;8.78;;;;;;;8.19;76.19;99986.06;1650575;86;21108;-82
2022/11/04 03:19:09;;;;;;;20.08;9.35;;;;;;;8.19;76.24;99972.34;1651627;86;21061;-82
2022/11/04 03:22:08;;;;;;;13.80;9.23;;;;;;;8.19;76.26;99972.34;1648873;84;21187;-82
2022/11/04 03:24:54;;;;;;;16.05;8.75;;;;;;;8.18;76.26;99975.34;1651366;85;21046;-82
2022/11/04 03:27:57;;;;;;;17.67;9.48;;;;;;;8.17;76.26;99974.09;1645187;85;21132;-82
2022/11/04 03:30:48;;;;;;;17.62;9.13;;;;;;;8.15;76.25;99971.97;1631147;86;21105;-82
2022/11/04 03:33:49;;;;;;;17.52;10.08;;;;;;;8.12;76.29;99978.45;1651751;86;21057;-82
2022/11/04 03:36:34;;;;;;;18.50;9.68;;;;;;;8.09;76.32;99972.92;1644254;85;21016;-82
2022/11/04 03:39:19;;;;;;;17.00;9.98;;;;;;;8.09;76.32;99973.36;1641804;84;20992;-82
2022/11/04 03:42:18;;;;;;;15.72;9.15;;;;;;;8.06;76.34;99971.68;1645016;85;21142;-82
2022/11/04 03:44:56;;;;;;;19.05;9.08;;;;;;;8.04;76.35;99966.99;1650841;86;21151;-82
2022/11/04 03:47:42;;;;;;;15.65;8.98;;;;;;;8.01;76.41;99969.61;1642870;86;21045;-82
2022/11/04 03:50:31;;;;;;;15.25;9.18;;;;;;;7.99;76.42;99968.79;1638267;86;21061;-82
2022/11/04 03:53:21;;;;;;;20.25;9.18;;;;;;;8.00;76.45;99973.06;1643270;84;21124;-82
2022/11/04 03:56:17;;;;;;;14.00;9.13;;;;;;;7.98;76.45;99974.81;1634436;86;21120;-83
2022/11/04 03:59:41;;;;;;;17.52;9.35;;;;;;;7.95;76.48;99972.28;1634109;86;21061;-82
2022/11/04 04:02:37;;;;;;;20.60;10.28;;;;;;;7.94;76.53;99965.00;1649003;86;21485;-82
2022/11/04 04:05:28;;;;;;;;;;;;;;;7.93;76.55;99968.45;1653990;86;21044;-82
2022/11/04 04:08:52;;;;;;;15.35;8.43;;;;;;;7.93;76.65;99976.17;1631816;84;20227;-82
2022/11/04 04:12:19;;;;;;;15.78;9.15;;;;;;;7.92;76.54;99977.05;1651320;84;21112;-82
2022/11/04 04:15:08;;;;;;;15.38;9.05;;;;;;;7.90;76.51;99976.66;1630334;86;21114;-82
2022/11/04 04:18:04;;;;;;;17.75;10.20;;;;;;;7.85;76.54;99980.58;1639425;86;21072;-82
2022/11/04 04:20:52;;;;;;;18.40;9.98;;;;;;;7.82;76.58;99970.33;1640303;85;21120;-83
2022/11/04 04:29:51;;;;;;;18.90;9.83;;;;;;;7.76;76.86;99961.45;1648009;86;20181;-83
2022/11/04 04:32:59;;;;;;;14.53;9.40;;;;;;;7.76;76.75;99965.31;1643305;86;21050;-83
2022/11/04 04:35:49;;;;;;;17.35;10.00;;;;;;;7.76;76.75;99965.75;1654313;85;21033;-83
2022/11/04 04:44:58;;;;;;;20.72;10.53;;;;;;;7.74;76.77;99961.06;1638555;86;21100;-82
2022/11/04 04:47:45;;;;;;;23.38;10.58;;;;;;;7.72;76.81;99959.80;1640487;86;21037;-82
2022/11/04 04:50:35;;;;;;;19.00;10.88;;;;;;;7.72;76.84;99958.94;1656089;86;21089;-82
2022/11/04 04:53:20;;;;;;;18.80;9.75;;;;;;;7.73;76.83;99958.07;1640558;84;21093;-82
2022/11/04 04:56:05;;;;;;;18.37;10.15;;;;;;;7.72;76.85;99956.37;1646151;84;21096;-82
2022/11/04 04:58:50;;;;;;;30.15;11.48;;;;;;;7.70;76.89;99955.55;1645498;86;21058;-81
2022/11/04 05:01:36;;;;;;;24.30;10.45;;;;;;;7.69;76.90;99951.27;1649088;86;21152;-81
2022/11/04 05:04:21;;;;;;;19.35;10.10;;;;;;;7.68;76.92;99949.13;1589564;87;21611;-80
2022/11/04 05:07:06;;;;;;;17.85;9.50;;;;;;;7.67;76.92;99950.00;1655948;85;21727;-81
2022/11/04 05:09:51;;;;;;;26.55;10.58;;;;;;;7.66;76.93;99948.73;1644376;84;21701;-81
2022/11/04 05:15:42;;;;;;;16.60;10.48;;;;;;;7.59;76.95;99943.69;1649017;85;20982;-81
2022/11/04 05:18:27;;;;;;;27.82;10.85;;;;;;;7.56;77.01;99941.59;1644233;85;20986;-81
2022/11/04 05:21:14;;;;;;;17.65;10.32;;;;;;;7.56;77.11;99946.30;1648434;85;20922;-81
2022/11/04 05:23:59;;;;;;;19.40;10.88;;;;;;;7.56;77.09;99950.59;1646706;85;20945;-81
2022/11/04 05:26:44;;;;;;;18.07;10.35;;;;;;;7.55;77.11;99948.89;1645060;85;21070;-80
2022/11/04 05:29:29;;;;;;;17.37;10.50;;;;;;;7.54;77.12;99939.04;1647904;84;20946;-81
2022/11/04 05:32:14;;;;;;;25.05;10.40;;;;;;;7.52;77.10;99933.06;1650205;85;21076;-81
2022/11/04 05:34:59;;;;;;;22.52;11.05;;;;;;;7.52;77.16;99937.36;1645898;85;21025;-81
2022/11/04 05:37:44;;;;;;;27.07;11.38;;;;;;;7.51;77.17;99933.94;1643980;86;21563;-80
2022/11/04 05:40:30;;;;;;;16.48;10.43;;;;;;;7.50;77.19;99932.67;1639766;86;21069;-81
2022/11/04 05:43:15;;;;;;;20.25;11.55;;;;;;;7.48;77.22;99924.98;1641238;86;21123;-81
2022/11/04 05:46:00;;;;;;;20.30;11.63;;;;;;;;;;1646178;86;21064;-81
2022/11/04 05:48:45;;;;;;;21.50;11.88;;;;;;;7.46;77.26;99927.16;1647429;85;21974;-81
2022/11/04 05:51:30;;;;;;;22.45;11.73;;;;;;;7.44;77.29;99928.47;1637032;86;21124;-81
2022/11/04 05:54:15;;;;;;;24.43;12.30;;;;;;;7.43;77.31;99924.20;1642447;85;20993;-81
2022/11/04 05:57:00;;;;;;;22.25;12.33;;;;;;;7.45;77.34;99925.02;1640000;85;21057;-81
2022/11/04 05:59:46;;;;;;;19.50;10.98;;;;;;;7.45;77.35;99927.59;1645201;85;21104;-81
2022/11/04 06:02:31;;;;;;;20.25;10.95;;;;;;;7.46;77.37;99922.86;1639826;85;21219;-81
2022/11/04 06:05:16;;;;;;;17.70;11.12;;;;;;;7.46;77.38;99926.72;1642929;86;21112;-81
2022/11/04 06:08:01;;;;;;;20.17;11.30;;;;;;;7.44;77.35;99928.91;1634366;85;21148;-81
2022/11/04 06:10:46;;;;;;;17.20;11.33;;;;;;;7.43;77.40;99926.77;1639886;86;21167;-81
2022/11/04 06:13:31;;;;;;;22.05;12.47;;;;;;;7.44;77.47;99928.91;1640027;86;21553;-81
2022/11/04 06:16:17;;;;;;;21.77;12.70;;;;;;;7.44;77.47;99925.89;1637608;85;21103;-81
2022/11/04 06:19:02;;;;;;;20.75;11.90;;;;;;;7.47;77.48;99927.57;1644261;84;21537;-81
2022/11/04 06:21:47;;;;;;;25.68;12.63;;;;;;;7.51;77.47;99925.37;1650722;85;21080;-81
2022/11/04 06:24:32;;;;;;;26.45;12.15;;;;;;;7.52;77.53;99924.06;1645772;85;21611;-81
2022/11/04 06:27:17;;;;;;;20.65;12.15;;;;;;;7.56;77.53;99922.30;1654174;85;21072;-81
2022/11/04 06:30:02;;;;;;;21.57;12.85;;;;;;;7.58;77.56;99927.83;1648467;85;21128;-81
2022/11/04 06:32:47;;;;;;;21.50;12.05;;;;;;;7.62;77.62;99933.34;1645368;86;21072;-81
2022/11/04 06:35:32;;;;;;;26.17;13.70;;;;;;;7.70;77.63;99938.38;1642346;86;21076;-81
2022/11/04 06:38:17;;;;;;;26.87;12.15;;;;;;;7.78;77.67;99948.13;1645618;85;21083;-81
2022/11/04 06:41:04;;;;;;;19.75;12.55;;;;;;;7.85;77.65;99948.41;1617122;87;21079;-82
2022/11/04 06:43:49;;;;;;;20.43;11.97;;;;;;;7.90;77.65;99954.34;1658659;84;21104;-81
2022/11/04 06:46:38;;;;;;;30.45;13.25;;;;;;;7.97;77.74;99953.80;1645596;84;21093;-81
2022/11/04 06:49:24;;;;;;;22.37;11.55;;;;;;;8.13;77.84;99956.98;1649285;86;21878;-81
2022/11/04 06:52:09;;;;;;;20.57;11.22;;;;;;;8.29;77.83;99951.55;1647623;86;21515;-81
2022/11/04 06:54:54;;;;;;;20.97;12.53;;;;;;;8.44;77.81;99953.02;1647096;86;21092;-81
2022/11/04 06:57:39;;;;;;;23.60;11.08;;;;;;;8.61;77.88;99952.27;1644351;84;21032;-81
2022/11/04 07:00:24;;;;;;;16.27;10.60;;;;;;;8.76;77.80;99952.86;1650809;84;21104;-81
2022/11/04 07:03:09;;;;;;;16.82;10.63;;;;;;;8.87;77.78;99953.47;1661182;84;21089;-81
2022/11/04 07:05:55;;;;;;;18.48;10.58;;;;;;;9.01;77.88;99949.33;1652933;85;21627;-81
2022/11/04 07:08:39;;;;;;;20.43;12.10;;;;;;;9.20;77.88;99956.66;1660688;84;21067;-81
2022/11/04 07:11:28;;;;;;;19.42;10.53;;;;;;;9.39;77.91;99951.09;1644405;85;21529;-81
2022/11/04 07:14:16;;;;;;;15.18;10.10;;;;;;;9.47;77.79;99955.20;1643840;84;21036;-81
2022/11/04 07:17:00;;;;;;;14.85;9.63;;;;;;;9.49;77.78;99954.72;1666607;85;21097;-81
2022/11/04 07:19:45;;;;;;;18.27;10.78;;;;;;;9.54;77.88;99955.91;1653184;85;21065;-81
2022/11/04 07:22:31;;;;;;;19.30;10.90;;;;;;;9.58;77.86;99957.54;1647174;85;21049;-81
2022/11/04 07:25:16;;;;;;;17.70;10.18;;;;;;;9.63;77.90;99957.00;1652087;84;21540;-81
2022/11/04 07:28:01;;;;;;;13.60;10.18;;;;;;;9.68;77.94;99961.61;1636438;85;21018;-81
2022/11/04 07:30:46;;;;;;;19.37;10.82;;;;;;;9.73;77.94;99962.36;1641185;85;21166;-81
2022/11/04 07:33:32;;;;;;;17.42;11.12;;;;;;;9.81;77.94;99963.03;1639133;85;21113;-81
2022/11/04 07:36:17;;;;;;;;;;;;;;;9.85;77.84;99967.24;1652701;85;21309;-81
2022/11/04 07:39:02;;;;;;;17.07;10.38;;;;;;;9.95;77.93;99976.44;1659921;84;20229;-81
2022/11/04 07:41:47;;;;;;;18.27;11.03;;;;;;;9.99;77.90;99982.38;1650441;85;21489;-81
2022/11/04 07:44:32;;;;;;;20.88;11.63;;;;;;;10.02;77.90;99980.17;1644566;85;21380;-81
2022/11/04 07:47:18;;;;;;;18.37;10.95;;;;;;;10.09;78.01;99983.02;1647572;85;21105;-81
2022/11/04 07:50:03;;;;;;;19.90;10.75;;;;;;;10.28;78.11;99984.30;1636649;85;409812;-81
2022/11/04 07:52:49;;;;;;;15.25;10.48;;;;;;;10.44;77.97;99985.58;1654317;85;21056;-81
2022/11/04 07:55:37;;;;;;;19.50;11.20;;;;;;;10.48;77.87;99988.49;1642009;84;21113;-81
2022/11/04 07:58:24;;;;;;;17.23;10.60;;;;;;;10.49;77.96;99988.89;1635212;85;21060;-81
2022/11/04 08:01:14;;;;;;;20.32;10.93;;;;;;;10.55;77.98;99992.62;1649081;84;21124;-81
2022/11/04 08:04:00;;;;;;;17.00;11.20;;;;;;;10.61;77.96;99991.61;1639289;85;21074;-81
2022/11/04 08:06:45;;;;;;;17.48;10.78;;;;;;;10.60;77.93;99995.09;1638959;85;21033;-81
2022/11/04 08:09:30;;;;;;;18.23;10.60;;;;;;;10.56;77.94;99989.14;1642282;85;21110;-81
2022/11/04 08:12:15;;;;;;;16.35;10.53;;;;;;;10.44;77.87;99978.27;1645033;85;21066;-81
2022/11/04 08:15:00;;;;;;;16.12;10.82;;;;;;;10.36;77.92;99980.23;1587539;88;21138;-81
2022/11/04 08:17:45;;;;;;;21.93;10.20;;;;;;;10.30;77.86;99982.53;1622915;86;21116;-82
2022/11/04 08:20:31;;;;;;;24.25;11.30;;;;;;;10.23;77.87;99974.08;1660103;84;21537;-82
2022/11/04 08:23:17;;;;;;;21.00;11.85;;;;;;;10.19;77.84;99971.58;1656200;84;21021;-82
2022/11/04 08:26:10;;;;;;;17.52;11.55;;;;;;;10.19;77.87;99973.75;1660602;84;21072;-81
2022/11/04 08:28:55;;;;;;;12.33;9.78;;;;;;;10.18;77.91;99975.89;1659991;83;21108;-81
2022/11/04 08:31:41;;;;;;;18.00;10.63;;;;;;;10.20;77.85;99968.13;1660928;85;21081;-81
2022/11/04 08:34:26;;;;;;;13.90;10.28;;;;;;;10.23;77.90;99967.62;1661448;85;21076;-81
2022/11/04 08:37:16;;;;;;;15.50;10.63;;;;;;;10.32;77.94;99974.29;1660569;84;21104;-81
2022/11/04 08:40:01;;;;;;;18.48;11.75;;;;;;;10.39;77.83;99982.73;1650083;85;21104;-81
2022/11/04 08:42:46;;;;;;;18.25;11.12;;;;;;;10.45;77.84;99981.27;1646233;85;21045;-81
2022/11/04 08:45:31;;;;;;;19.57;12.07;;;;;;;10.48;77.78;99979.45;1520780;84;5001219;-81
2022/11/04 08:48:16;;;;;;;17.70;12.00;;;;;;;10.51;77.83;99974.20;1643057;85;21118;-81
2022/11/04 08:51:02;;;;;;;18.40;11.18;;;;;;;10.57;77.80;99963.70;1649704;84;21028;-81
2022/11/04 08:53:48;;;;;;;;;;;;;;;10.59;77.78;99954.61;1649783;85;21104;-81
2022/11/04 08:56:37;;;;;;;19.67;11.35;;;;;;;10.61;77.62;99962.73;1651601;85;20200;-81
2022/11/04 08:59:23;;;;;;;22.58;10.78;;;;;;;10.61;77.64;99961.44;1642547;85;21109;-81
2022/11/04 09:02:15;;;;;;;18.20;10.75;;;;;;;10.57;77.66;99958.53;1653326;85;21052;-81
2022/11/04 09:05:00;;;;;;;18.95;11.40;;;;;;;10.56;77.64;99955.54;1652642;85;21088;-81
2022/11/04 09:07:45;;;;;;;18.63;10.53;;;;;;;10.54;77.68;99941.80;1644193;85;21108;-81
2022/11/04 09:10:31;;;;;;;16.82;11.30;;;;;;;10.53;77.64;99943.98;1648968;85;21143;-81
2022/11/04 09:13:16;;;;;;;22.15;10.98;;;;;;;10.55;77.65;99955.14;1668957;84;21636;-81
2022/11/04 09:16:02;;;;;;;17.67;11.60;;;;;;;10.56;77.64;99959.86;1658003;85;21068;-81
2022/11/04 09:18:47;;;;;;;20.57;11.93;;;;;;;10.58;77.67;99947.30;1654356;85;21080;-81
2022/11/04 09:21:32;;;;;;;18.35;11.28;;;;;;;10.63;77.71;99939.42;1644119;85;21513;-81
2022/11/04 09:24:17;;;;;;;18.62;12.05;;;;;;;10.66;77.63;99932.03;1662938;85;21490;-81
2022/11/04 09:27:02;;;;;;;20.00;11.88;;;;;;;10.70;77.66;99938.36;1657323;84;21074;-81
2022/11/04 09:29:47;;;;;;;19.37;10.38;;;;;;;10.77;77.67;99937.76;1643964;85;21072;-81
2022/11/04 09:32:32;;;;;;;16.35;11.68;;;;;;;10.80;77.63;99933.80;1663897;84;21144;-81
2022/11/04 09:35:18;;;;;;;18.65;10.80;;;;;;;10.85;77.61;99940.53;1667734;84;21144;-81
2022/11/04 09:38:03;;;;;;;18.90;11.12;;;;;;;10.87;77.57;99938.75;1661162;84;21084;-81
2022/11/04 09:40:49;;;;;;;16.67;10.63;;;;;;;10.92;77.61;99941.18;1673573;84;21121;-81
2022/11/04 09:43:40;;;;;;;16.95;11.20;;;;;;;10.94;77.52;99941.54;1656467;84;21107;-81
2022/11/04 09:46:26;;;;;;;25.50;11.45;;;;;;;10.93;77.54;99939.84;1655471;84;20996;-81
2022/11/04 09:49:15;;;;;;;;;;;;;;;10.94;77.52;99938.95;1661713;84;21722;-81
2022/11/04 09:52:08;;;;;;;18.92;10.78;;;;;;;10.98;77.45;99934.98;1659508;84;20476;-82
2022/11/04 09:55:22;;;;;;;17.17;11.38;;;;;;;11.02;77.55;99930.13;1635745;85;21061;-82
2022/11/04 09:58:11;;;;;;;18.30;11.43;;;;;;;11.04;77.50;99928.34;1680647;84;21062;-81
2022/11/04 10:01:07;;;;;;;24.47;11.95;;;;;;;11.05;77.51;99928.30;1656778;84;21100;-81
2022/11/04 10:04:25;;;;;;;20.77;11.57;;;;;;;11.07;77.49;99930.40;1660504;84;21325;-81
2022/11/04 10:07:54;;;;;;;18.62;11.15;;;;;;;11.10;77.45;99922.99;1611558;85;21480;-81
2022/11/04 10:11:10;;;;;;;23.73;11.05;;;;;;;11.11;77.42;99916.92;1664903;84;21109;-81
2022/11/04 10:14:07;;;;;;;;;;;;;;;11.11;77.40;99911.30;1664690;84;21428;-81
2022/11/04 10:17:15;;;;;;;17.82;10.38;;;;;;;11.12;77.20;99901.36;1654195;84;20648;-81
2022/11/04 10:20:43;;;;;;;25.97;12.13;;;;;;;11.15;77.44;99890.92;1659723;84;21049;-81
2022/11/04 10:23:44;;;;;;;16.15;10.82;;;;;;;11.23;77.43;99888.95;1659144;84;21112;-81
2022/11/04 10:26:56;;;;;;;19.65;11.83;;;;;;;11.32;77.37;99884.39;1655728;84;21549;-81
2022/11/04 10:29:49;;;;;;;22.25;12.30;;;;;;;11.36;77.32;99888.58;1664103;84;21572;-81
2022/11/04 10:33:02;;;;;;;23.15;11.60;;;;;;;11.42;77.37;99885.36;1648970;84;21173;-81
2022/11/04 10:35:52;;;;;;;21.02;12.28;;;;;;;11.50;77.34;99887.22;1661346;84;21063;-81
2022/11/04 10:38:46;;;;;;;20.65;12.65;;;;;;;11.57;77.26;99893.06;1658459;84;21114;-81
2022/11/04 10:41:37;;;;;;;23.83;10.90;;;;;;;11.63;77.24;99888.98;1659390;84;21135;-81
2022/11/04 10:44:32;;;;;;;18.23;11.53;;;;;;;11.67;77.26;99881.52;1659256;84;21060;-81
2022/11/04 10:47:45;;;;;;;17.82;10.75;;;;;;;11.72;77.17;99886.09;1657628;84;21112;-81
2022/11/04 10:50:47;;;;;;;18.77;11.15;;;;;;;11.74;77.17;99883.02;1658488;84;21052;-81
2022/11/04 10:53:33;;;;;;;20.62;11.48;;;;;;;11.76;77.12;99883.81;1660710;84;21104;-81
2022/11/04 10:56:38;;;;;;;18.87;11.25;;;;;;;11.77;77.04;99898.48;1660513;84;21048;-81
2022/11/04 10:59:49;;;;;;;16.20;10.55;;;;;;;11.76;77.03;99893.32;1665680;84;21050;-81
2022/11/04 11:02:47;;;;;;;17.23;10.88;;;;;;;11.76;77.02;99888.98;1658119;84;21058;-81
2022/11/04 11:05:32;;;;;;;16.35;10.38;;;;;;;11.78;77.03;99886.38;1661099;84;21072;-81
2022/11/04 11:08:32;;;;;;;15.43;10.15;;;;;;;11.77;76.94;99885.98;1663518;84;22383;-81
2022/11/04 11:11:37;;;;;;;15.15;10.93;;;;;;;11.74;76.92;99875.24;1590113;84;5000753;-81
2022/11/04 11:14:35;;;;;;;15.70;10.28;;;;;;;11.74;76.92;99875.24;1655065;84;21084;-81
2022/11/04 11:17:31;;;;;;;19.60;11.90;;;;;;;11.74;76.89;99866.63;1660092;84;21107;-81
2022/11/04 11:20:23;;;;;;;21.05;11.05;;;;;;;11.72;76.89;99870.56;1658167;84;21590;-81
2022/11/04 11:23:46;;;;;;;18.02;11.25;;;;;;;11.74;76.92;99873.09;1665993;84;21116;-81
2022/11/04 11:26:31;;;;;;;18.05;10.82;;;;;;;11.75;76.91;99873.05;1672418;84;21047;-81
2022/11/04 11:29:24;;;;;;;19.32;11.60;;;;;;;11.76;76.84;99876.48;1669719;84;21086;-81
2022/11/04 11:32:32;;;;;;;18.50;11.50;;;;;;;11.74;76.76;99877.83;1675673;84;21082;-81
2022/11/04 11:35:18;;;;;;;21.00;12.25;;;;;;;11.71;76.64;99869.31;1656680;84;21077;-81
2022/11/04 11:38:04;;;;;;;18.35;11.05;;;;;;;11.66;76.70;99872.05;1657502;84;21057;-81
2022/11/04 11:40:53;;;;;;;19.30;12.13;;;;;;;11.65;76.73;99874.69;1650802;84;21757;-81
2022/11/04 11:43:43;;;;;;;17.42;10.75;;;;;;;11.62;76.64;99865.28;1647936;84;20937;-81
2022/11/04 11:46:34;;;;;;;19.98;10.82;;;;;;;11.61;76.68;99862.29;1662745;83;20980;-81
2022/11/04 11:49:27;;;;;;;16.93;10.55;;;;;;;11.63;76.69;99857.06;1655310;84;20982;-81
2022/11/04 11:52:39;;;;;;;20.70;11.40;;;;;;;11.63;76.70;99864.83;1660528;84;20945;-81
2022/11/04 11:55:35;;;;;;;19.82;11.83;;;;;;;11.61;76.67;99857.11;1669934;84;20937;-81
2022/11/04 11:58:40;;;;;;;16.23;10.75;;;;;;;11.61;76.63;99854.08;1666525;84;20964;-81
2022/11/04 12:01:30;;;;;;;19.35;11.00;;;;;;;11.63;76.60;99854.02;1660542;84;21461;-81
2022/11/04 12:04:15;;;;;;;20.92;12.47;;;;;;;11.66;76.61;99853.08;1661961;84;20933;-81
2022/11/04 12:07:28;;;;;;;20.08;11.70;;;;;;;11.66;76.58;99847.90;1659719;84;20997;-81
2022/11/04 12:10:28;;;;;;;20.45;11.45;;;;;;;11.66;76.53;99848.74;1643224;84;34316;-81
2022/11/04 12:13:33;;;;;;;18.00;11.18;;;;;;;11.65;76.53;99844.46;1662506;84;20945;-81
2022/11/04 12:16:47;;;;;;;19.92;12.13;;;;;;;11.65;76.52;99844.91;1639854;84;20921;-81
2022/11/04 12:20:10;;;;;;;18.05;11.18;;;;;;;11.67;76.53;99834.05;1651161;84;20927;-81
2022/11/04 12:23:19;;;;;;;23.57;11.93;;;;;;;11.70;76.53;99828.33;1645036;86;21370;-81
2022/11/04 12:26:36;;;;;;;20.35;12.45;;;;;;;11.73;76.53;99806.21;1638959;86;21135;-81
2022/11/04 12:29:28;;;;;;;28.17;13.45;;;;;;;11.77;76.51;99807.83;1610041;87;21073;-81
2022/11/04 12:32:59;;;;;;;22.27;13.10;;;;;;;11.79;76.50;99807.78;1639445;86;21112;-81
2022/11/04 12:36:07;;;;;;;18.85;12.88;;;;;;;11.82;76.50;99803.34;1641593;86;21144;-81
2022/11/04 12:39:00;;;;;;;23.60;12.90;;;;;;;11.88;76.51;99815.24;1639409;86;21008;-81
2022/11/04 12:42:17;;;;;;;21.93;12.40;;;;;;;11.90;76.49;99811.70;1636940;86;21079;-81
2022/11/04 12:45:20;;;;;;;21.93;13.43;;;;;;;11.98;76.52;99813.16;1638620;85;21077;-81
2022/11/04 12:48:13;;;;;;;19.23;12.30;;;;;;;12.03;76.46;99805.62;1638656;86;21128;-81
2022/11/04 12:51:23;;;;;;;18.35;12.10;;;;;;;12.08;76.48;99808.05;1635727;86;21204;-81
2022/11/04 12:54:27;;;;;;;23.60;12.18;;;;;;;12.11;76.42;99813.97;1647851;84;21095;-81
2022/11/04 12:57:42;;;;;;;18.90;11.83;;;;;;;12.13;76.37;99813.92;1656921;84;21101;-81
2022/11/04 13:00:29;;;;;;;18.87;11.22;;;;;;;12.13;76.39;99822.54;1660183;84;21064;-81
2022/11/04 13:03:35;;;;;;;16.00;11.80;;;;;;;12.11;76.34;99826.93;1661470;84;21062;-81
2022/11/04 13:06:46;;;;;;;19.50;11.90;;;;;;;12.07;76.28;99826.64;1649530;84;21108;-81
2022/11/04 13:09:39;;;;;;;19.87;11.57;;;;;;;12.03;76.27;99839.30;1656967;84;21294;-81
2022/11/04 13:12:35;;;;;;;20.77;12.25;;;;;;;11.98;76.23;99842.50;1648419;84;21588;-81
2022/11/04 13:15:24;;;;;;;17.87;11.83;;;;;;;11.93;76.24;99853.50;1676766;84;21158;-81
2022/11/04 13:18:17;;;;;;;28.70;12.15;;;;;;;11.86;76.19;99848.13;1661073;84;21104;-81
2022/11/04 13:21:26;;;;;;;18.65;12.13;;;;;;;11.80;76.23;99854.35;1658696;84;21625;-81
2022/11/04 13:24:22;;;;;;;21.57;11.97;;;;;;;11.77;76.22;99860.08;1662854;84;21115;-81
2022/11/04 13:27:14;;;;;;;;;;;;;;;11.73;76.22;99857.16;1665020;84;21052;-81
2022/11/04 13:30:16;;;;;;;21.75;11.50;;;;;;;11.66;76.02;99856.96;1653089;84;20173;-81
2022/11/04 13:33:18;;;;;;;22.95;13.22;;;;;;;11.63;76.19;99866.97;1657878;84;21088;-81
2022/11/04 13:36:23;;;;;;;23.65;12.58;;;;;;;11.61;76.17;99868.77;1658287;84;21102;-82
2022/11/04 13:39:16;;;;;;;21.23;13.50;;;;;;;11.59;76.17;99866.67;1648136;85;21097;-82
2022/11/04 13:42:43;;;;;;;19.92;12.78;;;;;;;11.58;76.15;99878.77;1664218;84;21643;-82
2022/11/04 13:45:28;;;;;;;18.15;12.53;;;;;;;11.55;76.14;99870.25;1662285;84;21046;-82
2022/11/04 13:48:15;;;;;;;23.73;13.25;;;;;;;11.54;76.12;99868.56;1660325;84;21098;-82
2022/11/04 13:51:16;;;;;;;24.87;13.38;;;;;;;11.52;76.14;99860.84;1645824;84;21102;-82